sensor_id;sensor_type;location;lat;lon;timestamp;temperature;humidity
67769;DHT22;54569;52.018;5.584;2023-12-04T00:00:39;1.20;98.50
67769;DHT22;54569;52.018;5.584;2023-12-04T00:03:05;1.20;97.70
67769;DHT22;54569;52.018;5.584;2023-12-04T00:05:30;1.30;97.30
67769;DHT22;54569;52.018;5.584;2023-12-04T00:07:56;1.30;97.90
67769;DHT22;54569;52.018;5.584;2023-12-04T00:10:21;1.30;98.40
67769;DHT22;54569;52.018;5.584;2023-12-04T00:12:47;1.30;98.30
67769;DHT22;54569;52.018;5.584;2023-12-04T00:15:13;1.30;98.20
67769;DHT22;54569;52.018;5.584;2023-12-04T00:17:38;1.30;98.40
67769;DHT22;54569;52.018;5.584;2023-12-04T00:20:09;1.40;98.40
67769;DHT22;54569;52.018;5.584;2023-12-04T00:22:38;1.40;97.90
67769;DHT22;54569;52.018;5.584;2023-12-04T00:25:05;1.40;97.80
67769;DHT22;54569;52.018;5.584;2023-12-04T00:27:32;1.40;98.00
67769;DHT22;54569;52.018;5.584;2023-12-04T00:29:57;1.40;98.00
67769;DHT22;54569;52.018;5.584;2023-12-04T00:32:26;1.40;97.70
67769;DHT22;54569;52.018;5.584;2023-12-04T00:34:52;1.40;97.60
67769;DHT22;54569;52.018;5.584;2023-12-04T00:37:17;1.40;97.60
67769;DHT22;54569;52.018;5.584;2023-12-04T00:39:43;1.40;97.50
67769;DHT22;54569;52.018;5.584;2023-12-04T00:42:09;1.40;97.80
67769;DHT22;54569;52.018;5.584;2023-12-04T00:44:34;1.40;98.20
67769;DHT22;54569;52.018;5.584;2023-12-04T00:47:00;1.40;99.00
67769;DHT22;54569;52.018;5.584;2023-12-04T00:49:26;1.40;98.60
67769;DHT22;54569;52.018;5.584;2023-12-04T00:51:51;1.40;98.70
67769;DHT22;54569;52.018;5.584;2023-12-04T00:54:17;1.40;98.00
67769;DHT22;54569;52.018;5.584;2023-12-04T00:56:42;1.40;97.50
67769;DHT22;54569;52.018;5.584;2023-12-04T00:59:09;1.30;97.80
67769;DHT22;54569;52.018;5.584;2023-12-04T01:01:38;1.30;98.10
67769;DHT22;54569;52.018;5.584;2023-12-04T01:04:04;1.40;97.90
67769;DHT22;54569;52.018;5.584;2023-12-04T01:06:29;1.40;98.20
67769;DHT22;54569;52.018;5.584;2023-12-04T01:08:56;1.30;98.00
67769;DHT22;54569;52.018;5.584;2023-12-04T01:11:22;1.40;97.90
67769;DHT22;54569;52.018;5.584;2023-12-04T01:13:51;1.40;98.10
67769;DHT22;54569;52.018;5.584;2023-12-04T01:16:16;1.40;98.10
67769;DHT22;54569;52.018;5.584;2023-12-04T01:18:45;1.40;97.60
67769;DHT22;54569;52.018;5.584;2023-12-04T01:21:11;1.40;98.00
67769;DHT22;54569;52.018;5.584;2023-12-04T01:23:36;1.40;97.60
67769;DHT22;54569;52.018;5.584;2023-12-04T01:26:03;1.40;98.60
67769;DHT22;54569;52.018;5.584;2023-12-04T01:28:29;1.30;98.60
67769;DHT22;54569;52.018;5.584;2023-12-04T01:30:55;1.40;98.20
67769;DHT22;54569;52.018;5.584;2023-12-04T01:33:21;1.40;98.60
67769;DHT22;54569;52.018;5.584;2023-12-04T01:35:46;1.30;97.90
67769;DHT22;54569;52.018;5.584;2023-12-04T01:38:12;1.30;98.00
67769;DHT22;54569;52.018;5.584;2023-12-04T01:40:38;1.30;98.70
67769;DHT22;54569;52.018;5.584;2023-12-04T01:43:03;1.30;98.30
67769;DHT22;54569;52.018;5.584;2023-12-04T01:45:29;1.40;98.30
67769;DHT22;54569;52.018;5.584;2023-12-04T01:47:55;1.30;98.20
67769;DHT22;54569;52.018;5.584;2023-12-04T01:50:21;1.30;98.30
67769;DHT22;54569;52.018;5.584;2023-12-04T01:52:47;1.30;98.10
67769;DHT22;54569;52.018;5.584;2023-12-04T01:55:13;1.30;98.10
67769;DHT22;54569;52.018;5.584;2023-12-04T01:57:39;1.30;98.20
67769;DHT22;54569;52.018;5.584;2023-12-04T02:00:06;1.30;98.20
67769;DHT22;54569;52.018;5.584;2023-12-04T02:02:38;1.30;98.20
67769;DHT22;54569;52.018;5.584;2023-12-04T02:05:06;1.30;98.20
67769;DHT22;54569;52.018;5.584;2023-12-04T02:07:32;1.30;98.20
67769;DHT22;54569;52.018;5.584;2023-12-04T02:09:58;1.30;98.00
67769;DHT22;54569;52.018;5.584;2023-12-04T02:12:24;1.30;98.40
67769;DHT22;54569;52.018;5.584;2023-12-04T02:14:51;1.30;98.30
67769;DHT22;54569;52.018;5.584;2023-12-04T02:17:17;1.30;98.00
67769;DHT22;54569;52.018;5.584;2023-12-04T02:19:43;1.30;98.00
67769;DHT22;54569;52.018;5.584;2023-12-04T02:22:09;1.30;97.80
67769;DHT22;54569;52.018;5.584;2023-12-04T02:24:35;1.30;98.20
67769;DHT22;54569;52.018;5.584;2023-12-04T02:27:22;1.30;98.20
67769;DHT22;54569;52.018;5.584;2023-12-04T02:29:59;1.30;98.10
67769;DHT22;54569;52.018;5.584;2023-12-04T02:32:31;1.30;98.00
67769;DHT22;54569;52.018;5.584;2023-12-04T02:34:59;1.30;97.90
67769;DHT22;54569;52.018;5.584;2023-12-04T02:37:28;1.40;97.80
67769;DHT22;54569;52.018;5.584;2023-12-04T02:39:54;1.40;98.30
67769;DHT22;54569;52.018;5.584;2023-12-04T02:42:21;1.40;98.50
67769;DHT22;54569;52.018;5.584;2023-12-04T02:44:47;1.40;97.80
67769;DHT22;54569;52.018;5.584;2023-12-04T02:47:14;1.40;98.00
67769;DHT22;54569;52.018;5.584;2023-12-04T02:49:39;1.40;97.70
67769;DHT22;54569;52.018;5.584;2023-12-04T02:52:05;1.40;97.70
67769;DHT22;54569;52.018;5.584;2023-12-04T02:54:31;1.40;97.60
67769;DHT22;54569;52.018;5.584;2023-12-04T02:56:56;1.40;98.10
67769;DHT22;54569;52.018;5.584;2023-12-04T02:59:22;1.40;97.60
67769;DHT22;54569;52.018;5.584;2023-12-04T03:01:48;1.40;97.70
67769;DHT22;54569;52.018;5.584;2023-12-04T03:04:13;1.40;97.40
67769;DHT22;54569;52.018;5.584;2023-12-04T03:06:39;1.40;97.70
67769;DHT22;54569;52.018;5.584;2023-12-04T03:09:05;1.40;97.90
67769;DHT22;54569;52.018;5.584;2023-12-04T03:11:30;1.40;97.50
67769;DHT22;54569;52.018;5.584;2023-12-04T03:13:57;1.40;97.60
67769;DHT22;54569;52.018;5.584;2023-12-04T03:16:23;1.40;97.50
67769;DHT22;54569;52.018;5.584;2023-12-04T03:18:48;1.40;97.40
67769;DHT22;54569;52.018;5.584;2023-12-04T03:21:14;1.40;97.40
67769;DHT22;54569;52.018;5.584;2023-12-04T03:23:40;1.50;97.60
67769;DHT22;54569;52.018;5.584;2023-12-04T03:26:06;1.50;97.50
67769;DHT22;54569;52.018;5.584;2023-12-04T03:28:31;1.50;97.30
67769;DHT22;54569;52.018;5.584;2023-12-04T03:30:57;1.50;97.20
67769;DHT22;54569;52.018;5.584;2023-12-04T03:33:22;1.50;97.00
67769;DHT22;54569;52.018;5.584;2023-12-04T03:35:48;1.50;97.10
67769;DHT22;54569;52.018;5.584;2023-12-04T03:38:14;1.50;97.10
67769;DHT22;54569;52.018;5.584;2023-12-04T03:40:39;1.50;96.90
67769;DHT22;54569;52.018;5.584;2023-12-04T03:43:05;1.50;97.40
67769;DHT22;54569;52.018;5.584;2023-12-04T03:45:31;1.50;96.90
67769;DHT22;54569;52.018;5.584;2023-12-04T03:47:56;1.50;97.00
67769;DHT22;54569;52.018;5.584;2023-12-04T03:50:22;1.50;97.10
67769;DHT22;54569;52.018;5.584;2023-12-04T03:52:48;1.50;97.10
67769;DHT22;54569;52.018;5.584;2023-12-04T03:55:14;1.50;96.80
67769;DHT22;54569;52.018;5.584;2023-12-04T03:57:39;1.50;96.70
67769;DHT22;54569;52.018;5.584;2023-12-04T04:00:05;1.50;96.90
67769;DHT22;54569;52.018;5.584;2023-12-04T04:02:38;1.50;96.70
67769;DHT22;54569;52.018;5.584;2023-12-04T04:05:04;1.50;96.40
67769;DHT22;54569;52.018;5.584;2023-12-04T04:07:30;1.50;96.60
67769;DHT22;54569;52.018;5.584;2023-12-04T04:09:56;1.50;96.50
67769;DHT22;54569;52.018;5.584;2023-12-04T04:12:22;1.50;96.50
67769;DHT22;54569;52.018;5.584;2023-12-04T04:14:48;1.50;97.00
67769;DHT22;54569;52.018;5.584;2023-12-04T04:17:14;1.40;97.00
67769;DHT22;54569;52.018;5.584;2023-12-04T04:19:40;1.40;96.90
67769;DHT22;54569;52.018;5.584;2023-12-04T04:22:06;1.50;96.40
67769;DHT22;54569;52.018;5.584;2023-12-04T04:24:32;1.50;96.30
67769;DHT22;54569;52.018;5.584;2023-12-04T04:26:58;1.50;96.50
67769;DHT22;54569;52.018;5.584;2023-12-04T04:29:23;1.50;96.50
67769;DHT22;54569;52.018;5.584;2023-12-04T04:31:49;1.50;96.30
67769;DHT22;54569;52.018;5.584;2023-12-04T04:34:14;1.50;96.30
67769;DHT22;54569;52.018;5.584;2023-12-04T04:36:40;1.40;96.50
67769;DHT22;54569;52.018;5.584;2023-12-04T04:39:06;1.50;96.60
67769;DHT22;54569;52.018;5.584;2023-12-04T04:41:32;1.40;97.10
67769;DHT22;54569;52.018;5.584;2023-12-04T04:43:57;1.40;96.50
67769;DHT22;54569;52.018;5.584;2023-12-04T04:46:23;1.40;96.50
67769;DHT22;54569;52.018;5.584;2023-12-04T04:48:50;1.40;96.60
67769;DHT22;54569;52.018;5.584;2023-12-04T04:51:16;1.40;95.90
67769;DHT22;54569;52.018;5.584;2023-12-04T04:53:42;1.50;96.20
67769;DHT22;54569;52.018;5.584;2023-12-04T04:56:08;1.40;96.30
67769;DHT22;54569;52.018;5.584;2023-12-04T04:58:34;1.40;96.20
67769;DHT22;54569;52.018;5.584;2023-12-04T05:00:59;1.40;96.40
67769;DHT22;54569;52.018;5.584;2023-12-04T05:03:25;1.40;96.50
67769;DHT22;54569;52.018;5.584;2023-12-04T05:05:51;1.40;96.30
67769;DHT22;54569;52.018;5.584;2023-12-04T05:08:16;1.40;96.10
67769;DHT22;54569;52.018;5.584;2023-12-04T05:10:42;1.40;96.30
67769;DHT22;54569;52.018;5.584;2023-12-04T05:13:08;1.40;96.50
67769;DHT22;54569;52.018;5.584;2023-12-04T05:15:34;1.40;96.30
67769;DHT22;54569;52.018;5.584;2023-12-04T05:17:59;1.40;96.10
67769;DHT22;54569;52.018;5.584;2023-12-04T05:20:25;1.40;96.20
67769;DHT22;54569;52.018;5.584;2023-12-04T05:22:51;1.40;96.20
67769;DHT22;54569;52.018;5.584;2023-12-04T05:25:17;1.40;96.40
67769;DHT22;54569;52.018;5.584;2023-12-04T05:27:43;1.40;96.30
67769;DHT22;54569;52.018;5.584;2023-12-04T05:30:09;1.40;96.20
67769;DHT22;54569;52.018;5.584;2023-12-04T05:32:34;1.40;96.20
67769;DHT22;54569;52.018;5.584;2023-12-04T05:35:00;1.30;96.30
67769;DHT22;54569;52.018;5.584;2023-12-04T05:37:26;1.40;96.20
67769;DHT22;54569;52.018;5.584;2023-12-04T05:39:52;1.40;96.10
67769;DHT22;54569;52.018;5.584;2023-12-04T05:42:17;1.40;96.10
67769;DHT22;54569;52.018;5.584;2023-12-04T05:44:43;1.40;95.90
67769;DHT22;54569;52.018;5.584;2023-12-04T05:47:09;1.40;96.30
67769;DHT22;54569;52.018;5.584;2023-12-04T05:49:35;1.40;96.20
67769;DHT22;54569;52.018;5.584;2023-12-04T05:52:00;1.40;96.00
67769;DHT22;54569;52.018;5.584;2023-12-04T05:54:26;1.40;96.00
67769;DHT22;54569;52.018;5.584;2023-12-04T05:56:51;1.40;95.90
67769;DHT22;54569;52.018;5.584;2023-12-04T05:59:18;1.40;95.80
67769;DHT22;54569;52.018;5.584;2023-12-04T06:01:43;1.40;95.60
67769;DHT22;54569;52.018;5.584;2023-12-04T06:04:09;1.40;95.60
67769;DHT22;54569;52.018;5.584;2023-12-04T06:06:36;1.50;95.70
67769;DHT22;54569;52.018;5.584;2023-12-04T06:09:01;1.40;95.60
67769;DHT22;54569;52.018;5.584;2023-12-04T06:11:27;1.40;95.70
67769;DHT22;54569;52.018;5.584;2023-12-04T06:13:53;1.50;95.70
67769;DHT22;54569;52.018;5.584;2023-12-04T06:16:18;1.40;95.50
67769;DHT22;54569;52.018;5.584;2023-12-04T06:18:44;1.40;95.30
67769;DHT22;54569;52.018;5.584;2023-12-04T06:21:10;1.40;95.30
67769;DHT22;54569;52.018;5.584;2023-12-04T06:23:35;1.40;95.30
67769;DHT22;54569;52.018;5.584;2023-12-04T06:26:02;1.40;95.20
67769;DHT22;54569;52.018;5.584;2023-12-04T06:28:27;1.40;95.20
67769;DHT22;54569;52.018;5.584;2023-12-04T06:30:53;1.40;95.30
67769;DHT22;54569;52.018;5.584;2023-12-04T06:33:19;1.50;95.30
67769;DHT22;54569;52.018;5.584;2023-12-04T06:35:46;1.40;95.10
67769;DHT22;54569;52.018;5.584;2023-12-04T06:38:14;1.40;94.90
67769;DHT22;54569;52.018;5.584;2023-12-04T06:40:52;1.40;95.10
67769;DHT22;54569;52.018;5.584;2023-12-04T06:43:18;1.50;95.00
67769;DHT22;54569;52.018;5.584;2023-12-04T06:45:45;1.50;95.10
67769;DHT22;54569;52.018;5.584;2023-12-04T06:48:13;1.50;95.10
67769;DHT22;54569;52.018;5.584;2023-12-04T06:50:39;1.50;95.20
67769;DHT22;54569;52.018;5.584;2023-12-04T06:53:06;1.50;95.20
67769;DHT22;54569;52.018;5.584;2023-12-04T06:55:31;1.50;94.80
67769;DHT22;54569;52.018;5.584;2023-12-04T06:57:57;1.50;94.70
67769;DHT22;54569;52.018;5.584;2023-12-04T07:00:23;1.50;94.90
67769;DHT22;54569;52.018;5.584;2023-12-04T07:02:49;1.50;94.80
67769;DHT22;54569;52.018;5.584;2023-12-04T07:05:15;1.50;94.80
67769;DHT22;54569;52.018;5.584;2023-12-04T07:07:41;1.50;94.60
67769;DHT22;54569;52.018;5.584;2023-12-04T07:10:07;1.50;94.60
67769;DHT22;54569;52.018;5.584;2023-12-04T07:12:33;1.50;94.50
67769;DHT22;54569;52.018;5.584;2023-12-04T07:14:59;1.50;94.40
67769;DHT22;54569;52.018;5.584;2023-12-04T07:17:25;1.50;94.50
67769;DHT22;54569;52.018;5.584;2023-12-04T07:19:50;1.50;94.50
67769;DHT22;54569;52.018;5.584;2023-12-04T07:22:16;1.50;94.40
67769;DHT22;54569;52.018;5.584;2023-12-04T07:24:42;1.50;94.20
67769;DHT22;54569;52.018;5.584;2023-12-04T07:27:07;1.50;94.10
67769;DHT22;54569;52.018;5.584;2023-12-04T07:29:34;1.50;94.30
67769;DHT22;54569;52.018;5.584;2023-12-04T07:32:00;1.60;94.20
67769;DHT22;54569;52.018;5.584;2023-12-04T07:34:26;1.60;93.90
67769;DHT22;54569;52.018;5.584;2023-12-04T07:36:52;1.60;93.80
67769;DHT22;54569;52.018;5.584;2023-12-04T07:39:20;1.60;93.70
67769;DHT22;54569;52.018;5.584;2023-12-04T07:41:46;1.60;93.60
67769;DHT22;54569;52.018;5.584;2023-12-04T07:44:11;1.60;93.50
67769;DHT22;54569;52.018;5.584;2023-12-04T07:46:37;1.60;93.60
67769;DHT22;54569;52.018;5.584;2023-12-04T07:49:03;1.60;93.60
67769;DHT22;54569;52.018;5.584;2023-12-04T07:51:29;1.70;93.50
67769;DHT22;54569;52.018;5.584;2023-12-04T07:53:54;1.70;93.40
67769;DHT22;54569;52.018;5.584;2023-12-04T07:56:20;1.70;93.40
67769;DHT22;54569;52.018;5.584;2023-12-04T07:58:46;1.70;93.40
67769;DHT22;54569;52.018;5.584;2023-12-04T08:01:11;1.70;93.30
67769;DHT22;54569;52.018;5.584;2023-12-04T08:03:37;1.70;93.30
67769;DHT22;54569;52.018;5.584;2023-12-04T08:06:03;1.80;93.30
67769;DHT22;54569;52.018;5.584;2023-12-04T08:08:29;1.80;93.20
67769;DHT22;54569;52.018;5.584;2023-12-04T08:10:54;1.80;93.10
67769;DHT22;54569;52.018;5.584;2023-12-04T08:13:20;1.80;93.10
67769;DHT22;54569;52.018;5.584;2023-12-04T08:15:45;1.80;93.10
67769;DHT22;54569;52.018;5.584;2023-12-04T08:18:11;1.80;93.10
67769;DHT22;54569;52.018;5.584;2023-12-04T08:20:37;1.80;93.00
67769;DHT22;54569;52.018;5.584;2023-12-04T08:23:03;1.80;92.90
67769;DHT22;54569;52.018;5.584;2023-12-04T08:25:28;1.80;93.00
67769;DHT22;54569;52.018;5.584;2023-12-04T08:27:55;1.80;93.00
67769;DHT22;54569;52.018;5.584;2023-12-04T08:30:20;1.80;93.00
67769;DHT22;54569;52.018;5.584;2023-12-04T08:32:46;1.80;92.90
67769;DHT22;54569;52.018;5.584;2023-12-04T08:35:12;1.90;92.80
67769;DHT22;54569;52.018;5.584;2023-12-04T08:37:38;1.90;92.80
67769;DHT22;54569;52.018;5.584;2023-12-04T08:40:05;1.90;92.80
67769;DHT22;54569;52.018;5.584;2023-12-04T08:42:32;1.90;92.80
67769;DHT22;54569;52.018;5.584;2023-12-04T08:44:58;1.90;92.70
67769;DHT22;54569;52.018;5.584;2023-12-04T08:47:24;1.90;92.60
67769;DHT22;54569;52.018;5.584;2023-12-04T08:49:49;1.90;92.60
67769;DHT22;54569;52.018;5.584;2023-12-04T08:52:15;2.00;92.60
67769;DHT22;54569;52.018;5.584;2023-12-04T08:54:41;2.00;92.50
67769;DHT22;54569;52.018;5.584;2023-12-04T08:57:07;2.00;92.40
67769;DHT22;54569;52.018;5.584;2023-12-04T08:59:35;2.00;92.30
67769;DHT22;54569;52.018;5.584;2023-12-04T09:02:01;2.10;92.30
67769;DHT22;54569;52.018;5.584;2023-12-04T09:04:33;2.10;92.10
67769;DHT22;54569;52.018;5.584;2023-12-04T09:06:58;2.10;92.20
67769;DHT22;54569;52.018;5.584;2023-12-04T09:09:24;2.20;92.10
67769;DHT22;54569;52.018;5.584;2023-12-04T09:11:50;2.20;92.00
67769;DHT22;54569;52.018;5.584;2023-12-04T09:14:15;2.20;91.90
67769;DHT22;54569;52.018;5.584;2023-12-04T09:16:41;2.30;91.90
67769;DHT22;54569;52.018;5.584;2023-12-04T09:19:08;2.30;91.90
67769;DHT22;54569;52.018;5.584;2023-12-04T09:21:34;2.40;91.80
67769;DHT22;54569;52.018;5.584;2023-12-04T09:24:01;2.40;91.70
67769;DHT22;54569;52.018;5.584;2023-12-04T09:26:27;2.40;91.60
67769;DHT22;54569;52.018;5.584;2023-12-04T09:28:52;2.40;91.50
67769;DHT22;54569;52.018;5.584;2023-12-04T09:31:18;2.50;91.50
67769;DHT22;54569;52.018;5.584;2023-12-04T09:33:45;2.50;91.50
67769;DHT22;54569;52.018;5.584;2023-12-04T09:36:10;2.50;91.40
67769;DHT22;54569;52.018;5.584;2023-12-04T09:38:36;2.50;91.20
67769;DHT22;54569;52.018;5.584;2023-12-04T09:41:06;2.60;91.20
67769;DHT22;54569;52.018;5.584;2023-12-04T09:43:32;2.60;91.00
67769;DHT22;54569;52.018;5.584;2023-12-04T09:45:59;2.70;91.00
67769;DHT22;54569;52.018;5.584;2023-12-04T09:48:29;2.70;90.80
67769;DHT22;54569;52.018;5.584;2023-12-04T09:50:57;2.80;90.70
67769;DHT22;54569;52.018;5.584;2023-12-04T09:53:23;2.80;90.60
67769;DHT22;54569;52.018;5.584;2023-12-04T09:55:50;2.80;90.50
67769;DHT22;54569;52.018;5.584;2023-12-04T09:58:19;2.90;90.40
67769;DHT22;54569;52.018;5.584;2023-12-04T10:00:46;2.90;90.20
67769;DHT22;54569;52.018;5.584;2023-12-04T10:03:12;2.90;90.20
67769;DHT22;54569;52.018;5.584;2023-12-04T10:05:43;2.90;90.20
67769;DHT22;54569;52.018;5.584;2023-12-04T10:08:09;3.00;90.20
67769;DHT22;54569;52.018;5.584;2023-12-04T10:10:35;3.00;90.20
67769;DHT22;54569;52.018;5.584;2023-12-04T10:13:00;3.00;90.20
67769;DHT22;54569;52.018;5.584;2023-12-04T10:15:27;3.10;90.10
67769;DHT22;54569;52.018;5.584;2023-12-04T10:17:53;3.10;90.00
67769;DHT22;54569;52.018;5.584;2023-12-04T10:20:20;3.10;89.90
67769;DHT22;54569;52.018;5.584;2023-12-04T10:23:00;3.10;89.30
67769;DHT22;54569;52.018;5.584;2023-12-04T10:25:28;3.10;89.20
67769;DHT22;54569;52.018;5.584;2023-12-04T10:28:10;3.20;88.50
67769;DHT22;54569;52.018;5.584;2023-12-04T10:30:36;3.30;88.40
67769;DHT22;54569;52.018;5.584;2023-12-04T10:33:04;3.30;88.50
67769;DHT22;54569;52.018;5.584;2023-12-04T10:35:31;3.30;87.70
67769;DHT22;54569;52.018;5.584;2023-12-04T10:37:58;3.40;88.10
67769;DHT22;54569;52.018;5.584;2023-12-04T10:40:29;3.40;87.70
67769;DHT22;54569;52.018;5.584;2023-12-04T10:45:35;3.40;87.50
67769;DHT22;54569;52.018;5.584;2023-12-04T10:48:02;3.40;88.00
67769;DHT22;54569;52.018;5.584;2023-12-04T10:50:37;3.40;87.90
67769;DHT22;54569;52.018;5.584;2023-12-04T10:53:07;3.50;88.00
67769;DHT22;54569;52.018;5.584;2023-12-04T10:55:34;3.60;88.50
67769;DHT22;54569;52.018;5.584;2023-12-04T10:58:06;3.70;88.40
67769;DHT22;54569;52.018;5.584;2023-12-04T11:00:34;3.80;88.00
67769;DHT22;54569;52.018;5.584;2023-12-04T11:03:12;3.80;87.80
67769;DHT22;54569;52.018;5.584;2023-12-04T11:05:40;3.80;87.30
67769;DHT22;54569;52.018;5.584;2023-12-04T11:08:11;3.80;87.40
67769;DHT22;54569;52.018;5.584;2023-12-04T11:11:15;3.80;87.40
67769;DHT22;54569;52.018;5.584;2023-12-04T11:13:46;3.70;87.40
67769;DHT22;54569;52.018;5.584;2023-12-04T11:16:28;3.70;87.30
67769;DHT22;54569;52.018;5.584;2023-12-04T11:19:20;3.70;87.30
67769;DHT22;54569;52.018;5.584;2023-12-04T11:21:49;3.60;87.60
67769;DHT22;54569;52.018;5.584;2023-12-04T11:24:17;3.50;87.50
67769;DHT22;54569;52.018;5.584;2023-12-04T11:26:43;3.50;87.50
67769;DHT22;54569;52.018;5.584;2023-12-04T11:29:11;3.40;87.80
67769;DHT22;54569;52.018;5.584;2023-12-04T11:31:38;3.40;87.90
67769;DHT22;54569;52.018;5.584;2023-12-04T11:34:04;3.40;87.90
67769;DHT22;54569;52.018;5.584;2023-12-04T11:36:30;3.40;88.00
67769;DHT22;54569;52.018;5.584;2023-12-04T11:38:55;3.40;87.50
67769;DHT22;54569;52.018;5.584;2023-12-04T11:41:24;3.40;87.60
67769;DHT22;54569;52.018;5.584;2023-12-04T11:43:51;3.40;87.50
67769;DHT22;54569;52.018;5.584;2023-12-04T11:46:22;3.40;87.70
67769;DHT22;54569;52.018;5.584;2023-12-04T11:48:49;3.30;87.90
67769;DHT22;54569;52.018;5.584;2023-12-04T11:54:07;3.30;87.50
67769;DHT22;54569;52.018;5.584;2023-12-04T11:56:33;3.20;87.40
67769;DHT22;54569;52.018;5.584;2023-12-04T11:59:06;3.20;87.90
67769;DHT22;54569;52.018;5.584;2023-12-04T12:01:38;3.20;87.60
67769;DHT22;54569;52.018;5.584;2023-12-04T12:04:05;3.20;87.70
67769;DHT22;54569;52.018;5.584;2023-12-04T12:06:31;3.20;87.90
67769;DHT22;54569;52.018;5.584;2023-12-04T12:08:57;3.20;87.80
67769;DHT22;54569;52.018;5.584;2023-12-04T12:11:26;3.20;87.60
67769;DHT22;54569;52.018;5.584;2023-12-04T12:13:55;3.20;87.60
67769;DHT22;54569;52.018;5.584;2023-12-04T12:16:21;3.20;87.80
67769;DHT22;54569;52.018;5.584;2023-12-04T12:18:47;3.20;87.90
67769;DHT22;54569;52.018;5.584;2023-12-04T12:21:13;3.20;87.60
67769;DHT22;54569;52.018;5.584;2023-12-04T12:23:39;3.20;88.00
67769;DHT22;54569;52.018;5.584;2023-12-04T12:26:06;3.20;88.00
67769;DHT22;54569;52.018;5.584;2023-12-04T12:28:32;3.20;88.00
67769;DHT22;54569;52.018;5.584;2023-12-04T12:31:03;3.20;87.80
67769;DHT22;54569;52.018;5.584;2023-12-04T12:33:29;3.10;87.50
67769;DHT22;54569;52.018;5.584;2023-12-04T12:35:56;3.10;87.70
67769;DHT22;54569;52.018;5.584;2023-12-04T12:38:22;3.10;87.80
67769;DHT22;54569;52.018;5.584;2023-12-04T12:40:48;3.10;87.90
67769;DHT22;54569;52.018;5.584;2023-12-04T12:43:14;3.20;87.60
67769;DHT22;54569;52.018;5.584;2023-12-04T12:45:43;3.20;87.60
67769;DHT22;54569;52.018;5.584;2023-12-04T12:48:13;3.20;87.60
67769;DHT22;54569;52.018;5.584;2023-12-04T12:50:41;3.20;87.50
67769;DHT22;54569;52.018;5.584;2023-12-04T12:53:06;3.20;87.60
67769;DHT22;54569;52.018;5.584;2023-12-04T12:55:32;3.20;87.60
67769;DHT22;54569;52.018;5.584;2023-12-04T12:57:58;3.20;87.50
67769;DHT22;54569;52.018;5.584;2023-12-04T13:00:23;3.20;87.30
67769;DHT22;54569;52.018;5.584;2023-12-04T13:02:52;3.20;87.90
67769;DHT22;54569;52.018;5.584;2023-12-04T13:05:21;3.20;87.40
67769;DHT22;54569;52.018;5.584;2023-12-04T13:07:47;3.20;87.40
67769;DHT22;54569;52.018;5.584;2023-12-04T13:10:12;3.20;87.10
67769;DHT22;54569;52.018;5.584;2023-12-04T13:12:38;3.20;87.10
67769;DHT22;54569;52.018;5.584;2023-12-04T13:15:05;3.20;87.30
67769;DHT22;54569;52.018;5.584;2023-12-04T13:17:31;3.10;87.10
67769;DHT22;54569;52.018;5.584;2023-12-04T13:19:57;3.10;88.00
67769;DHT22;54569;52.018;5.584;2023-12-04T13:22:23;3.10;87.40
67769;DHT22;54569;52.018;5.584;2023-12-04T13:24:49;3.10;87.50
67769;DHT22;54569;52.018;5.584;2023-12-04T13:27:15;3.10;87.50
67769;DHT22;54569;52.018;5.584;2023-12-04T13:29:40;3.10;87.40
67769;DHT22;54569;52.018;5.584;2023-12-04T13:32:06;3.10;87.40
67769;DHT22;54569;52.018;5.584;2023-12-04T13:34:33;3.10;87.50
67769;DHT22;54569;52.018;5.584;2023-12-04T13:36:59;3.10;87.60
67769;DHT22;54569;52.018;5.584;2023-12-04T13:39:34;3.10;87.80
67769;DHT22;54569;52.018;5.584;2023-12-04T13:42:17;3.10;87.90
67769;DHT22;54569;52.018;5.584;2023-12-04T13:45:02;3.10;87.90
67769;DHT22;54569;52.018;5.584;2023-12-04T13:47:28;3.10;87.80
67769;DHT22;54569;52.018;5.584;2023-12-04T13:49:54;3.10;87.70
67769;DHT22;54569;52.018;5.584;2023-12-04T13:52:21;3.10;87.70
67769;DHT22;54569;52.018;5.584;2023-12-04T13:54:49;3.10;87.70
67769;DHT22;54569;52.018;5.584;2023-12-04T13:57:16;3.10;87.90
67769;DHT22;54569;52.018;5.584;2023-12-04T14:00:01;3.10;87.90
67769;DHT22;54569;52.018;5.584;2023-12-04T14:02:29;3.00;88.40
67769;DHT22;54569;52.018;5.584;2023-12-04T14:04:55;3.00;88.00
67769;DHT22;54569;52.018;5.584;2023-12-04T14:07:21;3.00;88.20
67769;DHT22;54569;52.018;5.584;2023-12-04T14:09:47;3.00;88.10
67769;DHT22;54569;52.018;5.584;2023-12-04T14:12:13;3.00;88.20
67769;DHT22;54569;52.018;5.584;2023-12-04T14:14:41;3.00;88.30
67769;DHT22;54569;52.018;5.584;2023-12-04T14:17:07;3.00;88.40
67769;DHT22;54569;52.018;5.584;2023-12-04T14:19:34;3.00;88.50
67769;DHT22;54569;52.018;5.584;2023-12-04T14:22:00;3.00;88.60
67769;DHT22;54569;52.018;5.584;2023-12-04T14:24:29;3.00;88.80
67769;DHT22;54569;52.018;5.584;2023-12-04T14:26:55;3.00;88.90
67769;DHT22;54569;52.018;5.584;2023-12-04T14:29:21;2.90;89.10
67769;DHT22;54569;52.018;5.584;2023-12-04T14:31:46;2.90;89.80
67769;DHT22;54569;52.018;5.584;2023-12-04T14:34:12;3.00;89.50
67769;DHT22;54569;52.018;5.584;2023-12-04T14:36:38;3.00;89.70
67769;DHT22;54569;52.018;5.584;2023-12-04T14:39:05;3.00;89.60
67769;DHT22;54569;52.018;5.584;2023-12-04T14:41:31;3.00;89.80
67769;DHT22;54569;52.018;5.584;2023-12-04T14:43:57;3.00;90.00
67769;DHT22;54569;52.018;5.584;2023-12-04T14:46:23;3.00;90.10
67769;DHT22;54569;52.018;5.584;2023-12-04T14:48:48;3.00;90.10
67769;DHT22;54569;52.018;5.584;2023-12-04T14:51:15;3.00;90.20
67769;DHT22;54569;52.018;5.584;2023-12-04T14:53:41;3.00;90.20
67769;DHT22;54569;52.018;5.584;2023-12-04T14:56:16;3.00;90.40
67769;DHT22;54569;52.018;5.584;2023-12-04T14:59:05;2.90;90.40
67769;DHT22;54569;52.018;5.584;2023-12-04T15:01:31;2.90;90.50
67769;DHT22;54569;52.018;5.584;2023-12-04T15:04:15;2.90;90.70
67769;DHT22;54569;52.018;5.584;2023-12-04T15:06:59;2.90;90.80
67769;DHT22;54569;52.018;5.584;2023-12-04T15:09:44;2.90;90.70
67769;DHT22;54569;52.018;5.584;2023-12-04T15:12:29;2.90;90.80
67769;DHT22;54569;52.018;5.584;2023-12-04T15:15:13;2.90;90.90
67769;DHT22;54569;52.018;5.584;2023-12-04T15:17:54;2.90;91.10
67769;DHT22;54569;52.018;5.584;2023-12-04T15:20:40;2.90;91.10
67769;DHT22;54569;52.018;5.584;2023-12-04T15:23:28;2.90;91.20
67769;DHT22;54569;52.018;5.584;2023-12-04T15:25:54;2.90;91.30
67769;DHT22;54569;52.018;5.584;2023-12-04T15:28:41;2.80;91.40
67769;DHT22;54569;52.018;5.584;2023-12-04T15:31:07;2.80;91.70
67769;DHT22;54569;52.018;5.584;2023-12-04T15:33:33;2.80;91.70
67769;DHT22;54569;52.018;5.584;2023-12-04T15:35:58;2.80;91.60
67769;DHT22;54569;52.018;5.584;2023-12-04T15:38:25;2.70;92.00
67769;DHT22;54569;52.018;5.584;2023-12-04T15:40:51;2.70;91.90
67769;DHT22;54569;52.018;5.584;2023-12-04T15:43:17;2.70;92.10
67769;DHT22;54569;52.018;5.584;2023-12-04T15:45:43;2.70;92.30
67769;DHT22;54569;52.018;5.584;2023-12-04T15:48:09;2.60;92.50
67769;DHT22;54569;52.018;5.584;2023-12-04T15:50:35;2.60;92.80